McCutcheon Field, North Carolina
Current Conditions -  °F | °C
As of 3:56 PM on Friday 19 Dec 2014 (Local Time) from KNCA Reporting Station
Clear Clear  
Wind Chill: 55°   Ceiling: Unl
Heat Index: 55°   Visibility: 10mi
Dew Point: 28°   Wind: 7mph
Humidity: 35%   Direction: 350°N
Pressure: 30.12"   Gusts: NA
Location:  34.72°N, 77.45°W
Report Text: KNCA 192056Z 35006KT 10SM CLR 13/M02 A3012 RMK AO2 SLP202 T01281022 53002
Loading
Personal Weather Stations






























Interactive Weather Map New forecast layout! Learn more

10-Day Weather Forecast

Advertisements
Track Severe Weather on mobile